메인 페이지
METAR-TAF:

METAR-TAF

공항 :

Meeker Airport

Meeker, 콜로라도, 미국

위도: 40-02-32N, 경도: 107-53-23W, 고도: 1948m

현재 날씨관측

예보는 8분 전, 01:28시(UTC)에 발표되었습니다.
동북동3kt
온도 0°C
습도 93%
기압 1021 hPa
시정: 4.8km
고도 2600ft 상공 구름 보통
고도 3300ft 상공 구름 많음
고도 4100ft 상공 흐림
약한눈, 박무

METAR: KEEO 170128Z AUTO 07003KT 3SM -SN BR SCT026 BKN033 OVC041 00/M01 A3016 RMK AO2 P0001 T00001011

시각: 18:36 (01:36 UTC)


TAF: 누락

4,000개 이상의 공항 관측 자료 및 예보 (METAR 및 TAF 보고).

지도상에서 검색 가능한 기상관측소가 노란 점과 빨간 점으로 표시되어 있습니다.

기상관측소 명을 보려면 표시 위로 마우스를 이동하세요.

날씨 관측과 예보를 보려면 클릭하세요.

지도 변경 : 확대하려면 엑스 표시가 있는 녹색 버튼, 축소하려면 빼기 표시가 있는 녹색 버튼, 다음 페이지의 지도를 보려면 녹색 화살표를 클릭하세요.


METAR-TAF: